createdAt,value
2017-08-09T14:18:37.557Z,30496
2017-08-09T14:18:56.458Z,30368
2017-08-09T14:19:15.435Z,30560
2017-08-09T14:19:34.224Z,30592
2017-08-09T14:19:53.009Z,30624
2017-08-09T14:20:12.316Z,30624
2017-08-09T14:20:31.177Z,30848
2017-08-09T14:20:50.013Z,30848
2017-08-09T14:21:08.811Z,30912
2017-08-09T14:21:28.150Z,30944
2017-08-09T14:21:47.507Z,31072
2017-08-09T14:22:06.314Z,31200
2017-08-09T14:22:25.680Z,31328
2017-08-09T14:22:44.014Z,31456
2017-08-09T14:23:02.869Z,31584
2017-08-09T14:23:55.840Z,32160
2017-08-09T14:24:15.282Z,32288
2017-08-09T14:24:34.576Z,32576
2017-08-09T14:24:53.932Z,33184
2017-08-09T14:25:13.266Z,33952
2017-08-09T14:26:05.442Z,37536
2017-08-09T14:26:24.333Z,39872
2017-08-09T14:26:42.675Z,42464
2017-08-09T14:27:01.523Z,44608
2017-08-09T14:27:20.884Z,46016
2017-08-09T14:27:39.718Z,46272
2017-08-09T14:27:59.057Z,45568
2017-08-09T14:28:17.869Z,44640
2017-08-09T14:28:36.656Z,43328
2017-08-09T14:29:09.424Z,40160
2017-08-09T14:29:28.825Z,38528
2017-08-09T14:29:48.248Z,37312
2017-08-09T14:30:09.075Z,36192
2017-08-09T14:30:27.437Z,35744
2017-08-09T14:30:46.266Z,35488
2017-08-09T14:31:04.603Z,35456
2017-08-09T14:31:23.955Z,35584
2017-08-09T14:31:43.294Z,35840
2017-08-09T14:32:03.572Z,35808
2017-08-09T14:32:21.880Z,36000
2017-08-09T14:32:40.831Z,36128
2017-08-09T14:33:00.192Z,36288
2017-08-09T14:33:19.571Z,36064
2017-08-09T14:33:38.415Z,36064
2017-08-09T14:33:57.819Z,36320
2017-08-09T14:34:48.947Z,36256
2017-08-09T14:35:07.631Z,36384
2017-08-09T14:35:27.277Z,36544
2017-08-09T14:35:46.662Z,36832
2017-08-09T14:36:05.811Z,36736
2017-08-09T14:36:24.727Z,36768
2017-08-09T14:36:43.609Z,36960
2017-08-09T14:37:02.037Z,37056
2017-08-09T14:37:20.987Z,37152
2017-08-09T14:37:40.435Z,37120
2017-08-09T14:38:13.268Z,37344
2017-08-09T14:38:32.077Z,37920
2017-08-09T14:38:52.337Z,38560
2017-08-09T14:39:44.798Z,43424
2017-08-09T14:40:18.682Z,47520
2017-08-09T14:40:38.092Z,49632
2017-08-09T14:40:56.964Z,51232
2017-08-09T14:41:15.806Z,51968
2017-08-09T14:41:35.191Z,52480
2017-08-09T14:42:08.033Z,52032
2017-08-09T14:42:26.912Z,50752
2017-08-09T14:42:46.380Z,49920
2017-08-09T14:43:05.928Z,49344
2017-08-09T14:43:58.289Z,48416
2017-08-09T14:44:17.977Z,48160
2017-08-09T14:44:51.676Z,47040
2017-08-09T14:45:10.951Z,46144
2017-08-09T14:45:30.322Z,45312
2017-08-09T14:45:49.157Z,44064
2017-08-09T14:46:08.506Z,43008
2017-08-09T14:46:27.363Z,42336
2017-08-09T14:46:46.270Z,42368
2017-08-09T14:47:05.631Z,43296
2017-08-09T14:47:25.128Z,44768
2017-08-09T14:47:43.956Z,46112
2017-08-09T14:48:03.456Z,47360
2017-08-09T14:48:36.961Z,48576
2017-08-09T14:48:56.330Z,47808
2017-08-09T14:49:16.068Z,46240
2017-08-09T14:49:34.879Z,45088
2017-08-09T14:49:54.280Z,43232
2017-08-09T14:50:12.723Z,42080
2017-08-09T14:50:31.599Z,40608
2017-08-09T14:50:50.461Z,39456
2017-08-09T14:51:09.897Z,38688
2017-08-09T14:51:29.244Z,38208
2017-08-09T14:51:48.602Z,37824
2017-08-09T14:52:07.950Z,37824
2017-08-09T14:52:27.567Z,37664
2017-08-09T14:52:46.976Z,37728
2017-08-09T14:53:06.416Z,37696
2017-08-09T14:53:25.324Z,37856
2017-08-09T14:53:44.839Z,37888
2017-08-09T14:54:04.360Z,38016
2017-08-09T14:54:23.345Z,38272
2017-08-09T14:54:42.895Z,38656
2017-08-09T14:55:02.539Z,39360
2017-08-09T14:55:21.423Z,39616
2017-08-09T14:55:40.969Z,39808
2017-08-09T14:56:01.810Z,39840
2017-08-09T14:56:20.232Z,39744
2017-08-09T14:56:53.611Z,39360
2017-08-09T14:57:12.430Z,38464
2017-08-09T14:57:32.046Z,38080
2017-08-09T14:57:51.916Z,37728
2017-08-09T14:58:10.833Z,37760
2017-08-09T14:58:29.919Z,37760
2017-08-09T14:58:48.865Z,37344
2017-08-09T14:59:08.273Z,37536
2017-08-09T15:00:00.395Z,37888
2017-08-09T15:00:19.776Z,37952
2017-08-09T15:00:38.597Z,38016
2017-08-09T15:00:57.977Z,38272
2017-08-09T15:01:16.790Z,38624
2017-08-09T15:01:36.132Z,39072
2017-08-09T15:01:55.534Z,39744
2017-08-09T15:02:14.397Z,40416
2017-08-09T15:02:33.850Z,40800
2017-08-09T15:02:52.845Z,41440
2017-08-09T15:03:12.338Z,42816
2017-08-09T15:03:31.827Z,44736
2017-08-09T15:03:51.348Z,47456
2017-08-09T15:04:10.722Z,49216
2017-08-09T15:04:29.716Z,50912
2017-08-09T15:04:49.078Z,52128
2017-08-09T15:05:07.455Z,52032
2017-08-09T15:05:26.296Z,51584
2017-08-09T15:05:45.148Z,50496
2017-08-09T15:06:04.496Z,50176
2017-08-09T15:06:23.316Z,48704
2017-08-09T15:06:42.676Z,47136
2017-08-09T15:07:01.993Z,45952
2017-08-09T15:07:20.838Z,44960
2017-08-09T15:07:39.649Z,43648
2017-08-09T15:07:59.248Z,41664
2017-08-09T15:08:18.215Z,40384
2017-08-09T15:08:37.764Z,39616
2017-08-09T15:08:57.826Z,38912
2017-08-09T15:09:17.426Z,38624
2017-08-09T15:09:36.972Z,38560
2017-08-09T15:09:56.537Z,39296
2017-08-09T15:10:15.553Z,40160
2017-08-09T15:10:34.811Z,41120
2017-08-09T15:10:54.321Z,42240
2017-08-09T15:11:13.787Z,43328
2017-08-09T15:11:32.594Z,43712
2017-08-09T15:11:52.102Z,43808
2017-08-09T15:12:10.885Z,43264
2017-08-09T15:12:30.216Z,42496
2017-08-09T15:12:49.017Z,41696
2017-08-09T15:13:07.283Z,41088
2017-08-09T15:13:26.156Z,40544
2017-08-09T15:13:45.477Z,39936
2017-08-09T15:14:04.497Z,39232
2017-08-09T15:14:23.495Z,38624
2017-08-09T15:14:42.889Z,38368
2017-08-09T15:15:02.282Z,37984
2017-08-09T15:15:21.187Z,37664
2017-08-09T15:15:40.542Z,37536
2017-08-09T15:15:59.891Z,37408
2017-08-09T15:16:19.196Z,37472
2017-08-09T15:16:38.012Z,37504
2017-08-09T15:16:57.414Z,37408
2017-08-09T15:17:16.213Z,37344
2017-08-09T15:17:35.660Z,37408
2017-08-09T15:17:55.008Z,37632
2017-08-09T15:18:13.813Z,38816
2017-08-09T15:18:32.744Z,37696
2017-08-09T15:18:52.073Z,37664
2017-08-09T15:19:11.405Z,37536
2017-08-09T15:19:30.231Z,37376
2017-08-09T15:19:49.056Z,37376
2017-08-09T15:20:07.449Z,37120
2017-08-09T15:20:26.301Z,37152
2017-08-09T15:20:45.120Z,37248
2017-08-09T15:21:04.463Z,37344
2017-08-09T15:21:23.785Z,37472
2017-08-09T15:21:42.051Z,37568
2017-08-09T15:22:01.397Z,37568
2017-08-09T15:22:20.701Z,37600
2017-08-09T15:22:40.012Z,37952
2017-08-09T15:22:58.307Z,38112
2017-08-09T15:23:17.622Z,38112
2017-08-09T15:23:36.914Z,38048
2017-08-09T15:23:56.253Z,37952
2017-08-09T15:24:15.031Z,37952
2017-08-09T15:24:33.830Z,37792
2017-08-09T15:24:52.615Z,37632
2017-08-09T15:25:11.485Z,37568
2017-08-09T15:25:30.785Z,37632
2017-08-09T15:25:49.176Z,37696
2017-08-09T15:26:07.977Z,37984
2017-08-09T15:26:26.769Z,38336
2017-08-09T15:26:45.599Z,38688
2017-08-09T15:27:04.945Z,39584
2017-08-09T15:27:23.730Z,40096
2017-08-09T15:27:43.024Z,40768
2017-08-09T15:28:02.331Z,41280
2017-08-09T15:28:21.665Z,41728
2017-08-09T15:28:40.973Z,42016
2017-08-09T15:28:59.259Z,42080
2017-08-09T15:29:18.557Z,42208
2017-08-09T15:29:51.875Z,42656
2017-08-09T15:30:11.196Z,42464
2017-08-09T15:30:30.740Z,42976
2017-08-09T15:30:49.515Z,43296
2017-08-09T15:31:08.310Z,43776
2017-08-09T15:31:27.811Z,43968
2017-08-09T15:31:46.614Z,44480
2017-08-09T15:32:04.879Z,44288
2017-08-09T15:32:23.729Z,43360
2017-08-09T15:32:43.102Z,42336
2017-08-09T15:33:01.910Z,41280
2017-08-09T15:33:21.251Z,39648
2017-08-09T15:33:40.577Z,38080
2017-08-09T15:33:59.915Z,36960
2017-08-09T15:34:18.202Z,36320
2017-08-09T15:34:36.483Z,35872
2017-08-09T15:34:55.285Z,35360
2017-08-09T15:35:14.603Z,35232
2017-08-09T15:35:33.443Z,34880
2017-08-09T15:35:52.659Z,34784
2017-08-09T15:36:12.172Z,34624
2017-08-09T15:36:31.732Z,34656
2017-08-09T15:36:51.221Z,34400
2017-08-09T15:37:10.511Z,34336
2017-08-09T15:37:29.810Z,34144
2017-08-09T15:37:49.103Z,33952
2017-08-09T15:38:08.432Z,33856
2017-08-09T15:38:26.727Z,33856
2017-08-09T15:38:46.059Z,34048
2017-08-09T15:39:04.843Z,34080
2017-08-09T15:39:23.621Z,34048
2017-08-09T15:39:42.913Z,33920
2017-08-09T15:40:02.202Z,33760
2017-08-09T15:40:21.510Z,33600
2017-08-09T15:40:40.298Z,33536
2017-08-09T15:40:59.114Z,33504
2017-08-09T15:41:18.561Z,33504
2017-08-09T15:41:37.380Z,33312
2017-08-09T15:41:56.688Z,33376
2017-08-09T15:42:15.985Z,33376
2017-08-09T15:42:34.760Z,33312
2017-08-09T15:42:54.083Z,33376
2017-08-09T15:43:12.349Z,33408
2017-08-09T15:43:31.732Z,33248
2017-08-09T15:43:50.554Z,33216
2017-08-09T15:44:09.894Z,33120
2017-08-09T15:44:29.219Z,32896
2017-08-09T15:44:48.048Z,32864
2017-08-09T15:45:07.374Z,32864
2017-08-09T15:45:25.637Z,32896
2017-08-09T15:45:45.092Z,32896
2017-08-09T15:46:04.434Z,32960
2017-08-09T15:46:23.274Z,32928
2017-08-09T15:46:42.072Z,33184
2017-08-09T15:47:01.399Z,33280
2017-08-09T15:47:20.716Z,33376
2017-08-09T15:47:40.045Z,33664
2017-08-09T15:47:59.388Z,33888
2017-08-09T15:48:18.165Z,34144
2017-08-09T15:48:36.966Z,34560
2017-08-09T15:48:55.773Z,35232
2017-08-09T15:49:14.578Z,35872
2017-08-09T15:49:33.898Z,36288
2017-08-09T15:49:51.699Z,36512
2017-08-09T15:50:10.615Z,36864
2017-08-09T15:50:30.046Z,36608
2017-08-09T15:50:48.345Z,36128
2017-08-09T15:51:07.222Z,35232
2017-08-09T15:51:25.512Z,34496
2017-08-09T15:51:43.944Z,33792
2017-08-09T15:52:02.755Z,33152
2017-08-09T15:52:22.046Z,32576
2017-08-09T15:52:40.854Z,32352
2017-08-09T15:53:00.161Z,32096
2017-08-09T15:53:18.443Z,32160
2017-08-09T15:53:37.778Z,32160
2017-08-09T15:53:57.061Z,32192
2017-08-09T15:54:16.001Z,32128
2017-08-09T15:54:34.810Z,32128
2017-08-09T15:54:53.615Z,32192
2017-08-09T15:55:12.922Z,32128
2017-08-09T15:55:31.736Z,32224
2017-08-09T15:55:51.207Z,32256
2017-08-09T15:56:10.570Z,32096
2017-08-09T15:56:29.878Z,32128
2017-08-09T15:56:49.221Z,32160
2017-08-09T15:57:08.516Z,32288
2017-08-09T15:57:27.363Z,32288
2017-08-09T15:57:48.067Z,32320
2017-08-09T15:58:07.404Z,32256
2017-08-09T15:58:26.193Z,32128
2017-08-09T15:58:45.492Z,32064
2017-08-09T15:59:04.298Z,32128
2017-08-09T15:59:23.234Z,32192
2017-08-09T15:59:42.261Z,32160
2017-08-09T16:00:01.663Z,32320
2017-08-09T16:00:20.446Z,32384
2017-08-09T16:00:39.259Z,32416
2017-08-09T16:00:58.062Z,32288
2017-08-09T16:01:16.871Z,32288
2017-08-09T16:01:36.174Z,32288
2017-08-09T16:01:54.992Z,32416
2017-08-09T16:02:14.280Z,32384
2017-08-09T16:02:33.088Z,32640
2017-08-09T16:02:52.399Z,32640
2017-08-09T16:03:11.680Z,32704
2017-08-09T16:03:30.452Z,33056
2017-08-09T16:03:49.761Z,33088
2017-08-09T16:04:08.557Z,33088
2017-08-09T16:04:27.357Z,33280
2017-08-09T16:04:46.133Z,33248
2017-08-09T16:05:05.439Z,33440
2017-08-09T16:05:24.250Z,33696
2017-08-09T16:05:43.579Z,33760
2017-08-09T16:06:02.908Z,33920
2017-08-09T16:06:22.224Z,33984
2017-08-09T16:06:39.999Z,34240
2017-08-09T16:06:59.297Z,34368
2017-08-09T16:07:18.614Z,34592
2017-08-09T16:07:37.917Z,34432
2017-08-09T16:07:57.209Z,34528
2017-08-09T16:08:16.010Z,34432
2017-08-09T16:08:35.311Z,34432
2017-08-09T16:08:54.657Z,34784
2017-08-09T16:09:13.457Z,34912
2017-08-09T16:09:32.985Z,35040
2017-08-09T16:09:51.804Z,35296
2017-08-09T16:10:10.579Z,35552
2017-08-09T16:10:29.872Z,35456
2017-08-09T16:10:48.675Z,35744
2017-08-09T16:11:07.070Z,35872
2017-08-09T16:11:26.457Z,36000
2017-08-09T16:11:44.750Z,36544
2017-08-09T16:12:04.145Z,36800
2017-08-09T16:12:23.625Z,37088
2017-08-09T16:12:42.559Z,36960
2017-08-09T16:13:01.809Z,37024
2017-08-09T16:13:21.249Z,36960
2017-08-09T16:13:40.130Z,36704
2017-08-09T16:13:59.709Z,36128
2017-08-09T16:14:19.784Z,35680
2017-08-09T16:14:39.096Z,35232
2017-08-09T16:14:57.904Z,35232
2017-08-09T16:15:17.224Z,34944
2017-08-09T16:15:36.605Z,34720
2017-08-09T16:15:55.974Z,34560
2017-08-09T16:16:15.321Z,34368
2017-08-09T16:16:34.891Z,34368
2017-08-09T16:16:54.294Z,34272
2017-08-09T16:17:13.801Z,33952
2017-08-09T16:17:31.321Z,33728
2017-08-09T16:17:50.661Z,33504
2017-08-09T16:18:24.017Z,33024
2017-08-09T16:18:43.377Z,32896
2017-08-09T16:19:01.709Z,32960
2017-08-09T16:19:21.056Z,32928
2017-08-09T16:19:39.883Z,32992
2017-08-09T16:19:58.758Z,32832
2017-08-09T16:20:17.584Z,32736
2017-08-09T16:20:36.462Z,32640
2017-08-09T16:20:55.792Z,32576
2017-08-09T16:21:14.565Z,32352
2017-08-09T16:21:33.363Z,32096
2017-08-09T16:21:51.646Z,32064
2017-08-09T16:22:10.940Z,32032
2017-08-09T16:22:30.249Z,31840
2017-08-09T16:22:49.050Z,31872
2017-08-09T16:23:08.409Z,31648
2017-08-09T16:23:27.765Z,31616
2017-08-09T16:23:46.622Z,31712
2017-08-09T16:24:05.454Z,31808
2017-08-09T16:24:24.313Z,31872
2017-08-09T16:24:43.130Z,31936
2017-08-09T16:25:01.985Z,31872
2017-08-09T16:25:21.347Z,31968
2017-08-09T16:25:54.164Z,32064
2017-08-09T16:26:13.058Z,32064
2017-08-09T16:26:32.640Z,32256
2017-08-09T16:26:52.747Z,32608
2017-08-09T16:27:11.710Z,32960
2017-08-09T16:27:30.164Z,33536
2017-08-09T16:27:49.069Z,34592
2017-08-09T16:28:07.434Z,35744
2017-08-09T16:28:25.946Z,36992
2017-08-09T16:28:44.292Z,38752
2017-08-09T16:29:03.707Z,40768
2017-08-09T16:29:22.563Z,42560
2017-08-09T16:29:41.432Z,43552
2017-08-09T16:30:00.901Z,45312
2017-08-09T16:30:19.246Z,46368
2017-08-09T16:30:38.662Z,46880
2017-08-09T16:30:56.953Z,47136
2017-08-09T16:31:15.760Z,47520
2017-08-09T16:31:35.032Z,47072
2017-08-09T16:31:54.076Z,46528
2017-08-09T16:32:12.979Z,44576
2017-08-09T16:32:46.490Z,40608
2017-08-09T16:33:05.423Z,38208
2017-08-09T16:33:25.511Z,36032
2017-08-09T16:33:44.902Z,34656
2017-08-09T16:34:03.966Z,34112
2017-08-09T16:34:23.729Z,33696
2017-08-09T16:34:42.632Z,33792
2017-08-09T16:35:02.057Z,34048
2017-08-09T16:35:21.023Z,34688
2017-08-09T16:35:53.405Z,35904
2017-08-09T16:36:11.890Z,36256
2017-08-09T16:36:30.730Z,36608
2017-08-09T16:36:50.545Z,36896
2017-08-09T16:37:09.437Z,36736
2017-08-09T16:37:28.286Z,36512
2017-08-09T16:37:46.690Z,36192
2017-08-09T16:38:06.636Z,35392
2017-08-09T16:38:39.464Z,34240
2017-08-09T16:38:58.845Z,33824
2017-08-09T16:39:17.710Z,33440
2017-08-09T16:39:36.543Z,33600
2017-08-09T16:39:56.049Z,33888
2017-08-09T16:40:14.497Z,34432
2017-08-09T16:40:33.313Z,34656
2017-08-09T16:40:52.160Z,35008
2017-08-09T16:41:11.523Z,35520
2017-08-09T16:41:30.931Z,35936
2017-08-09T16:41:50.275Z,36288
2017-08-09T16:42:23.577Z,37440
2017-08-09T16:42:42.892Z,37984
2017-08-09T16:43:02.211Z,38464
2017-08-09T16:43:21.630Z,38944
2017-08-09T16:43:41.011Z,39264
2017-08-09T16:44:00.651Z,40320
2017-08-09T16:44:19.560Z,41152
2017-08-09T16:44:38.886Z,42176
2017-08-09T16:44:59.147Z,42752
2017-08-09T16:45:18.360Z,43328
2017-08-09T16:45:36.731Z,43744
2017-08-09T16:45:56.080Z,44288
2017-08-09T16:46:15.418Z,45632
2017-08-09T16:46:34.216Z,46240
2017-08-09T16:46:53.751Z,47456
2017-08-09T16:47:12.607Z,47840
2017-08-09T16:47:31.445Z,47712
2017-08-09T16:47:50.401Z,46976
2017-08-09T16:48:10.140Z,45856
2017-08-09T16:48:29.446Z,44928
2017-08-09T16:48:48.803Z,43520
2017-08-09T16:49:08.257Z,42048
2017-08-09T16:49:27.677Z,41088
2017-08-09T16:49:46.564Z,40960
2017-08-09T16:50:04.879Z,40640
2017-08-09T16:50:24.277Z,40608
2017-08-09T16:50:43.727Z,40416
2017-08-09T16:51:02.657Z,39328
2017-08-09T16:51:21.647Z,38112
2017-08-09T16:51:41.074Z,36640
2017-08-09T16:52:14.450Z,34048
2017-08-09T16:52:33.783Z,33472
2017-08-09T16:52:52.076Z,33152
2017-08-09T16:53:11.525Z,33472
2017-08-09T16:53:30.474Z,34240
2017-08-09T16:53:49.218Z,35296
2017-08-09T16:54:09.105Z,37056
2017-08-09T16:54:28.617Z,38720
2017-08-09T16:54:48.031Z,40480
2017-08-09T16:55:07.382Z,41472
2017-08-09T16:55:26.784Z,42240
2017-08-09T16:55:45.657Z,41824
2017-08-09T16:56:05.003Z,41696
2017-08-09T16:56:23.843Z,40416
2017-08-09T16:56:57.716Z,37760
2017-08-09T16:57:16.050Z,36576
2017-08-09T16:57:34.391Z,35456
2017-08-09T16:57:53.963Z,34048
2017-08-09T16:58:12.410Z,33152
2017-08-09T16:58:31.787Z,32416
2017-08-09T16:58:50.117Z,31872
2017-08-09T16:59:08.907Z,31200
2017-08-09T16:59:27.263Z,30752
2017-08-09T16:59:46.603Z,30144
2017-08-09T17:00:06.010Z,29888
2017-08-09T17:00:24.843Z,29536
2017-08-09T17:00:43.646Z,29440
2017-08-09T17:01:02.437Z,29216
2017-08-09T17:01:21.872Z,29184
2017-08-09T17:01:41.203Z,29152
2017-08-09T17:02:00.034Z,29184
2017-08-09T17:02:19.400Z,29024
2017-08-09T17:02:38.760Z,28736
2017-08-09T17:02:57.571Z,28640
2017-08-09T17:03:16.927Z,28480
2017-08-09T17:03:36.254Z,28192
2017-08-09T17:03:55.191Z,28096
2017-08-09T17:04:13.557Z,27872
2017-08-09T17:04:31.843Z,27680
2017-08-09T17:04:50.193Z,27616
2017-08-09T17:05:09.079Z,27424
2017-08-09T17:05:28.450Z,27360
2017-08-09T17:05:46.745Z,27200
2017-08-09T17:06:05.622Z,27232
2017-08-09T17:06:24.604Z,27264
2017-08-09T17:06:43.980Z,27168
2017-08-09T17:07:03.382Z,27072
2017-08-09T17:07:22.247Z,27008
2017-08-09T17:07:41.747Z,26976
2017-08-09T17:08:14.634Z,26720
2017-08-09T17:08:33.972Z,26688
2017-08-09T17:08:53.111Z,26656
2017-08-09T17:09:12.014Z,26592
2017-08-09T17:09:30.348Z,26528
2017-08-09T17:09:49.292Z,26400
2017-08-09T17:10:08.164Z,26336
2017-08-09T17:10:25.999Z,25888
2017-08-09T17:10:44.849Z,25920
2017-08-09T17:11:03.143Z,25728
2017-08-09T17:11:22.474Z,25920
2017-08-09T17:11:41.329Z,25888
2017-08-09T17:12:00.131Z,25792
2017-08-09T17:12:18.432Z,25696
2017-08-09T17:12:37.308Z,25440
2017-08-09T17:12:56.637Z,25376
2017-08-09T17:13:15.996Z,25376
2017-08-09T17:13:35.397Z,25280
2017-08-09T17:13:55.231Z,25248
2017-08-09T17:14:28.736Z,25248
2017-08-09T17:14:48.040Z,25280
2017-08-09T17:15:07.391Z,25184
2017-08-09T17:15:26.229Z,25184
2017-08-09T17:15:45.120Z,25120
2017-08-09T17:16:04.454Z,24928
2017-08-09T17:16:23.813Z,24800
2017-08-09T17:16:42.668Z,24960
2017-08-09T17:17:01.979Z,24960
2017-08-09T17:17:20.757Z,24992
2017-08-09T17:17:39.775Z,24992
2017-08-09T17:17:59.199Z,25152
2017-08-09T17:18:17.490Z,25056
2017-08-09T17:18:36.775Z,25152
2017-08-09T17:18:56.577Z,25152
2017-08-09T17:19:15.682Z,25184
2017-08-09T17:19:33.975Z,25088
2017-08-09T17:19:52.757Z,24960
2017-08-09T17:20:11.561Z,24992
2017-08-09T17:20:30.926Z,25056
2017-08-09T17:20:50.247Z,24832
2017-08-09T17:21:09.598Z,24832
2017-08-09T17:21:28.476Z,24864
2017-08-09T17:21:47.814Z,24896
2017-08-09T17:22:06.181Z,25056
2017-08-09T17:22:25.513Z,25152
2017-08-09T17:22:44.805Z,25408
2017-08-09T17:23:04.121Z,25536
2017-08-09T17:23:23.455Z,25632
2017-08-09T17:23:41.983Z,25568
2017-08-09T17:24:00.847Z,25184
2017-08-09T17:24:19.683Z,25344
2017-08-09T17:24:39.031Z,24480
2017-08-09T17:24:58.592Z,24768
2017-08-09T17:25:17.671Z,24864
2017-08-09T17:25:50.993Z,24800
2017-08-09T17:26:10.314Z,24928
2017-08-09T17:26:29.137Z,25184
2017-08-09T17:26:47.962Z,25312
2017-08-09T17:27:07.306Z,25216
2017-08-09T17:27:26.657Z,25088
2017-08-09T17:27:45.455Z,25152
2017-08-09T17:28:04.343Z,25088
2017-08-09T17:28:23.379Z,24960
2017-08-09T17:28:42.981Z,24800
2017-08-09T17:29:35.077Z,24512
2017-08-09T17:29:54.383Z,24768
2017-08-09T17:30:13.909Z,25056
2017-08-09T17:30:34.043Z,25504
2017-08-09T17:30:52.862Z,25472
2017-08-09T17:31:11.734Z,25600
2017-08-09T17:31:31.092Z,25408
2017-08-09T17:31:50.417Z,25120
2017-08-09T17:32:09.270Z,24800
2017-08-09T17:32:28.641Z,24448
2017-08-09T17:32:47.491Z,24256
2017-08-09T17:33:06.270Z,24160
2017-08-09T17:33:25.597Z,24160
2017-08-09T17:33:44.435Z,24192
2017-08-09T17:34:03.768Z,24192
2017-08-09T17:34:23.070Z,24064
2017-08-09T17:34:42.398Z,24128
2017-08-09T17:35:01.890Z,24032
2017-08-09T17:35:21.053Z,23968
2017-08-09T17:35:40.561Z,23808
2017-08-09T17:36:00.454Z,23776
2017-08-09T17:36:19.914Z,23712
2017-08-09T17:36:39.351Z,23552
2017-08-09T17:36:58.246Z,23648
2017-08-09T17:37:17.618Z,24000
2017-08-09T17:37:36.965Z,24256
2017-08-09T17:37:55.832Z,24384
2017-08-09T17:38:15.462Z,24576
2017-08-09T17:38:35.445Z,24416
2017-08-09T17:38:54.507Z,24544
2017-08-09T17:39:13.440Z,24576
2017-08-09T17:39:32.939Z,24608
2017-08-09T17:40:06.527Z,24864
2017-08-09T17:40:25.935Z,25120
2017-08-09T17:40:45.348Z,25152
2017-08-09T17:41:04.750Z,24928
2017-08-09T17:41:23.174Z,24960
2017-08-09T17:41:41.592Z,24896
2017-08-09T17:42:00.536Z,24832
2017-08-09T17:42:19.454Z,24288
2017-08-09T17:42:38.377Z,24288
2017-08-09T17:42:57.303Z,24576
2017-08-09T17:43:16.852Z,24672
2017-08-09T17:43:52.518Z,24608
2017-08-09T17:45:16.012Z,24672
2017-08-09T17:45:35.399Z,24416
2017-08-09T17:46:08.846Z,24096
2017-08-09T17:46:43.337Z,23680
2017-08-09T17:47:03.280Z,23680
2017-08-09T17:47:22.852Z,23424
2017-08-09T17:47:58.262Z,23040
2017-08-09T17:48:31.881Z,23136
2017-08-09T17:48:51.375Z,23104
2017-08-09T17:49:25.457Z,23072
2017-08-09T17:49:44.981Z,23104
2017-08-09T17:50:03.777Z,23200
2017-08-09T17:50:23.436Z,23264
2017-08-09T17:50:42.873Z,23296
2017-08-09T17:51:02.335Z,23168
2017-08-09T17:51:20.660Z,22944
2017-08-09T17:51:40.452Z,22912
2017-08-09T17:52:00.670Z,22880
2017-08-09T17:52:20.408Z,22688
2017-08-09T17:52:40.919Z,22720
2017-08-09T17:53:00.504Z,22848
2017-08-09T17:53:33.762Z,22848
2017-08-09T17:53:54.549Z,22880
2017-08-09T17:54:41.456Z,22720
2017-08-09T17:55:35.375Z,22432
2017-08-09T17:56:08.930Z,22304
2017-08-09T17:56:41.609Z,22144
2017-08-09T17:57:01.653Z,22080
2017-08-09T17:57:54.433Z,21984
2017-08-09T17:58:14.049Z,22112
2017-08-09T17:58:33.371Z,22272
2017-08-09T17:59:06.722Z,22432
2017-08-09T17:59:25.562Z,22592
2017-08-09T17:59:44.456Z,22816
2017-08-09T18:00:03.761Z,22848
2017-08-09T18:00:23.077Z,22912
2017-08-09T18:00:41.447Z,22848
2017-08-09T18:01:00.730Z,22976
2017-08-09T18:01:33.543Z,22880
2017-08-09T18:01:52.936Z,22912
2017-08-09T18:02:12.329Z,22880
2017-08-09T18:02:31.870Z,23008
2017-08-09T18:02:50.731Z,23008
2017-08-09T18:03:23.516Z,22784
2017-08-09T18:03:42.936Z,22656
2017-08-09T18:04:02.280Z,22528
2017-08-09T18:04:21.573Z,21568
2017-08-09T18:04:40.915Z,21600
2017-08-09T18:04:59.841Z,21728
2017-08-09T18:05:32.746Z,21696
2017-08-09T18:05:51.559Z,21632
2017-08-09T18:06:10.379Z,21376
2017-08-09T18:06:28.699Z,21184
2017-08-09T18:06:50.301Z,21248
2017-08-09T18:07:08.083Z,20992
2017-08-09T18:07:26.897Z,21024
2017-08-09T18:07:45.172Z,21120
2017-08-09T18:08:04.491Z,20960
2017-08-09T18:08:23.877Z,20864
2017-08-09T18:08:43.189Z,20896
2017-08-09T18:09:03.651Z,21024
2017-08-09T18:09:23.583Z,20736
2017-08-09T18:09:42.418Z,20736
2017-08-09T18:10:01.753Z,20736
2017-08-09T18:10:20.560Z,20800
2017-08-09T18:10:39.338Z,20736
2017-08-09T18:10:58.653Z,20832
2017-08-09T18:11:17.431Z,20768
2017-08-09T18:11:35.790Z,20896
2017-08-09T18:12:08.846Z,11532
2017-08-09T18:12:28.499Z,11304
2017-08-09T18:12:47.896Z,17536
2017-08-09T18:13:06.229Z,11132
2017-08-09T18:13:25.083Z,10992
2017-08-09T18:13:44.449Z,11048
2017-08-09T18:14:03.296Z,10888
2017-08-09T18:14:22.750Z,10736
2017-08-09T18:14:42.044Z,10564
2017-08-09T18:15:00.909Z,10280
2017-08-09T18:15:20.235Z,10184
2017-08-09T18:15:38.670Z,10180
2017-08-09T18:15:57.963Z,10332
2017-08-09T18:16:16.256Z,19456
2017-08-09T18:16:35.089Z,20384
2017-08-09T18:16:54.492Z,20352
2017-08-09T18:17:13.383Z,20576
2017-08-09T18:17:32.726Z,21248
2017-08-09T18:17:51.624Z,21696
2017-08-09T18:18:10.930Z,22208
2017-08-09T18:18:30.319Z,23104
2017-08-09T18:18:49.467Z,23648
2017-08-09T18:19:08.811Z,24000
2017-08-09T18:19:27.666Z,24160
2017-08-09T18:19:47.155Z,24384
2017-08-09T18:20:06.980Z,23808
2017-08-09T18:20:25.512Z,23040
2017-08-09T18:20:44.498Z,21728
2017-08-09T18:21:03.630Z,21024
2017-08-09T18:21:21.916Z,20512
2017-08-09T18:21:41.392Z,19584
2017-08-09T18:22:14.812Z,19968
2017-08-09T18:22:33.805Z,19936
2017-08-09T18:22:53.392Z,19680
2017-08-09T18:23:26.747Z,19712
2017-08-09T18:23:45.714Z,19776
2017-08-09T18:24:04.641Z,19840
2017-08-09T18:24:23.461Z,20000
2017-08-09T18:24:42.822Z,20000
2017-08-09T18:25:02.157Z,20128
2017-08-09T18:25:20.497Z,20224
2017-08-09T18:25:38.343Z,20192
2017-08-09T18:25:57.340Z,20064
2017-08-09T18:26:16.788Z,20000
2017-08-09T18:26:36.568Z,9484
2017-08-09T18:26:55.573Z,9296
2017-08-09T18:27:14.392Z,9328
2017-08-09T18:27:33.204Z,19392
2017-08-09T18:27:52.658Z,20000
2017-08-09T18:28:12.270Z,18400
2017-08-09T18:28:31.800Z,9496
2017-08-09T18:28:51.163Z,14248
2017-08-09T18:29:10.473Z,19648
2017-08-09T18:29:29.781Z,19680
2017-08-09T18:29:48.041Z,19840
2017-08-09T18:30:06.310Z,19680
2017-08-09T18:30:25.124Z,19712
2017-08-09T18:30:44.450Z,19520
2017-08-09T18:31:03.758Z,19488
2017-08-09T18:31:22.049Z,19328
2017-08-09T18:31:40.835Z,19136
2017-08-09T18:32:00.138Z,19136
2017-08-09T18:32:18.966Z,19072
2017-08-09T18:32:38.286Z,19072
2017-08-09T18:32:57.617Z,19008
2017-08-09T18:33:16.960Z,19008
2017-08-09T18:33:36.466Z,18720
2017-08-09T18:33:55.864Z,18592
2017-08-09T18:34:15.241Z,17024
2017-08-09T18:34:34.740Z,14240
2017-08-09T18:34:54.099Z,10912
2017-08-09T18:35:12.365Z,8656
2017-08-09T18:35:31.168Z,8584
2017-08-09T18:35:49.980Z,9800
2017-08-09T18:36:08.786Z,9352
2017-08-09T18:36:27.576Z,16704
2017-08-09T18:36:46.904Z,17248
2017-08-09T18:37:06.235Z,17600
2017-08-09T18:37:25.343Z,18144
2017-08-09T18:37:43.618Z,18368
2017-08-09T18:38:02.982Z,18624
2017-08-09T18:38:21.471Z,18912
2017-08-09T18:38:40.777Z,19264
2017-08-09T18:39:00.364Z,19648
2017-08-09T18:39:19.284Z,19744
2017-08-09T18:39:38.618Z,19840